Time;durP1;ratioP1;P1;durP2;ratioP2;P2;SDS_P1;SDS_P2;PMS_P1;PMS_P2;Temp;Humidity;BMP_temperature;BMP_pressure;BME280_temperature;BME280_humidity;BME280_pressure;Samples;Min_cycle;Max_cycle;Signal;HPM_P1;HPM_P2
2022/09/24 00:00:43;;;;;;;9.68;5.60;;;;;;;9.98;100.00;98499.25;4983242;28;20026;-61
2022/09/24 00:03:08;;;;;;;10.13;5.65;;;;;;;10.04;100.00;98488.47;4989918;28;20466;-61
2022/09/24 00:05:38;;;;;;;12.55;6.18;;;;;;;9.88;100.00;98457.28;5003944;28;20542;-61
2022/09/24 00:08:07;;;;;;;13.05;7.03;;;;;;;10.02;100.00;98487.00;4986355;28;20066;-61
2022/09/24 00:10:40;;;;;;;12.98;6.35;;;;;;;10.06;100.00;98485.53;4986502;28;20383;-61
2022/09/24 00:13:08;;;;;;;9.75;6.00;;;;;;;10.13;100.00;98482.84;4989180;28;20034;-61
2022/09/24 00:15:42;;;;;;;8.15;4.93;;;;;;;10.15;100.00;98488.88;5000398;28;20478;-61
2022/09/24 00:18:10;;;;;;;7.70;4.82;;;;;;;10.14;100.00;98479.09;4984993;28;20031;-61
2022/09/24 00:20:37;;;;;;;6.97;4.60;;;;;;;10.06;100.00;98474.72;4989649;28;20026;-61
2022/09/24 00:23:04;;;;;;;7.90;5.25;;;;;;;10.04;100.00;98472.25;4986514;28;20488;-61
2022/09/24 00:28:14;;;;;;;12.70;5.05;;;;;;;10.03;100.00;98469.75;4995574;28;20045;-60
2022/09/24 00:30:41;;;;;;;7.78;4.97;;;;;;;10.02;100.00;98468.91;4996046;28;20023;-60
2022/09/24 00:33:07;;;;;;;11.43;6.95;;;;;;;10.05;100.00;98468.50;4988635;28;20041;-61
2022/09/24 00:35:33;;;;;;;10.60;6.00;;;;;;;10.08;100.00;98468.06;4999111;28;20030;-61
2022/09/24 00:37:58;;;;;;;12.25;5.75;;;;;;;10.13;100.00;98464.75;4984197;28;20382;-60
2022/09/24 00:40:28;;;;;;;11.15;6.18;;;;;;;10.13;100.00;98462.06;4985877;28;20029;-60
2022/09/24 00:42:54;;;;;;;8.05;5.50;;;;;;;10.13;100.00;98455.81;4983916;28;20030;-60
2022/09/24 00:45:19;;;;;;;8.77;5.65;;;;;;;10.15;100.00;98451.88;4995175;28;20026;-60
2022/09/24 00:47:45;;;;;;;10.07;5.30;;;;;;;10.16;100.00;98453.53;4983321;28;20030;-60
2022/09/24 00:50:23;;;;;;;9.30;5.65;;;;;;;10.14;100.00;98452.06;4999901;28;20361;-60
2022/09/24 00:52:58;;;;;;;10.10;6.25;;;;;;;10.16;100.00;98455.41;4981042;28;20074;-61
2022/09/24 00:55:25;;;;;;;8.90;6.30;;;;;;;10.09;100.00;98463.53;4987383;28;20073;-61
2022/09/24 00:57:57;;;;;;;10.85;6.68;;;;;;;10.02;100.00;98451.88;4981552;28;20034;-61
2022/09/24 01:00:23;;;;;;;12.27;6.97;;;;;;;10.02;100.00;98458.09;4979031;28;20034;-60
2022/09/24 01:02:56;;;;;;;12.65;6.90;;;;;;;9.97;100.00;98455.19;4979672;28;20041;-61
2022/09/24 01:05:21;;;;;;;11.43;6.53;;;;;;;9.97;100.00;98448.97;4983647;28;20031;-61
2022/09/24 01:07:47;;;;;;;12.43;6.75;;;;;;;9.98;100.00;98439.81;4983676;28;20052;-61
2022/09/24 01:10:46;;;;;;;8.48;5.80;;;;;;;9.94;100.00;98427.78;4984756;28;20027;-61
2022/09/24 01:13:11;;;;;;;9.77;5.53;;;;;;;9.90;100.00;98426.50;4994455;28;20034;-61
2022/09/24 01:15:42;;;;;;;14.15;6.60;;;;;;;9.86;100.00;98415.31;4981042;28;20034;-60
2022/09/24 01:18:31;;;;;;;12.00;6.05;;;;;;;9.85;100.00;98422.56;4988172;28;20026;-61
2022/09/24 01:21:29;;;;;;;14.13;7.07;;;;;;;9.85;100.00;98421.72;4972423;28;20097;-61
2022/09/24 01:24:14;;;;;;;13.10;6.68;;;;;;;10.01;100.00;98418.63;4981712;28;20045;-61
2022/09/24 01:27:11;;;;;;;18.67;7.53;;;;;;;10.01;100.00;98420.50;4997766;28;20026;-61
2022/09/24 01:29:45;;;;;;;13.10;6.65;;;;;;;10.07;100.00;98427.75;4982692;28;20034;-61
2022/09/24 01:32:23;;;;;;;10.30;6.50;;;;;;;10.05;100.00;98413.63;4997055;28;20350;-61
2022/09/24 01:34:58;;;;;;;9.95;6.28;;;;;;;10.10;100.00;98416.53;4997889;28;20390;-60
2022/09/24 01:37:27;;;;;;;11.75;6.43;;;;;;;10.09;100.00;98409.47;4999618;28;20397;-61
2022/09/24 01:39:55;;;;;;;9.45;5.85;;;;;;;10.06;100.00;98409.88;4980934;28;20047;-61
2022/09/24 01:42:22;;;;;;;12.18;6.72;;;;;;;10.01;100.00;98404.28;4995505;28;20034;-61
2022/09/24 01:44:49;;;;;;;11.43;6.20;;;;;;;9.97;100.00;98400.31;4974825;28;20442;-61
2022/09/24 01:47:22;;;;;;;8.85;5.75;;;;;;;9.91;100.00;98388.47;4978322;28;20073;-60
2022/09/24 01:49:50;;;;;;;12.45;6.53;;;;;;;9.91;100.00;98396.59;4985137;28;20026;-61
2022/09/24 01:52:22;;;;;;;11.85;6.30;;;;;;;9.90;100.00;98396.78;4985793;28;20034;-61
2022/09/24 01:54:51;;;;;;;12.30;6.85;;;;;;;9.88;100.00;98397.00;4985526;28;20038;-61
2022/09/24 01:57:35;;;;;;;10.68;6.20;;;;;;;9.92;100.00;98394.72;4985827;28;20030;-61
2022/09/24 02:00:10;;;;;;;12.63;6.60;;;;;;;9.85;100.00;98386.59;4992758;28;20113;-60
2022/09/24 02:02:44;;;;;;;8.75;5.72;;;;;;;9.82;100.00;98395.13;5001261;28;20477;-61
2022/09/24 02:05:42;;;;;;;8.55;5.88;;;;;;;9.80;100.00;98398.06;4987777;28;20030;-61
2022/09/24 02:08:15;;;;;;;14.10;6.10;;;;;;;9.68;100.00;98390.78;4999997;28;20030;-60
2022/09/24 02:10:56;;;;;;;9.98;5.85;;;;;;;9.65;100.00;98386.63;4988966;28;20278;-60
2022/09/24 02:13:28;;;;;;;16.65;6.25;;;;;;;9.55;100.00;98388.91;4988157;28;20434;-60
2022/09/24 02:15:58;;;;;;;9.15;6.00;;;;;;;9.46;100.00;98384.72;4977225;28;20367;-60
2022/09/24 02:18:31;;;;;;;10.63;7.28;;;;;;;9.44;100.00;98383.06;4984632;28;20054;-60
2022/09/24 02:21:02;;;;;;;10.63;7.15;;;;;;;9.48;100.00;98385.34;4983291;28;20057;-60
2022/09/24 02:23:30;;;;;;;11.52;6.45;;;;;;;9.71;100.00;98383.09;4983396;28;20031;-60
2022/09/24 02:25:58;;;;;;;10.48;5.70;;;;;;;9.69;100.00;98387.84;4984361;28;20026;-60
2022/09/24 02:28:25;;;;;;;10.23;5.88;;;;;;;9.73;100.00;98381.00;4983812;28;20039;-60
2022/09/24 02:31:06;;;;;;;8.93;6.00;;;;;;;9.66;100.00;98382.88;4985383;28;20054;-60
2022/09/24 02:36:18;;;;;;;7.03;5.43;;;;;;;9.60;100.00;98378.31;4983325;28;20037;-60
2022/09/24 02:38:45;;;;;;;10.05;5.53;;;;;;;9.53;100.00;98382.88;4991415;28;20101;-60
2022/09/24 02:41:12;;;;;;;7.53;5.35;;;;;;;9.47;100.00;98373.72;5006984;28;20378;-60
2022/09/24 02:43:39;;;;;;;9.13;5.60;;;;;;;9.43;100.00;98386.81;4988526;28;20044;-60
2022/09/24 02:46:08;;;;;;;10.65;6.18;;;;;;;9.49;100.00;98381.63;4983788;28;20030;-60
2022/09/24 02:48:35;;;;;;;10.63;6.78;;;;;;;9.47;100.00;98389.94;4986520;28;20334;-60
2022/09/24 02:51:02;;;;;;;10.90;6.32;;;;;;;9.42;100.00;98387.03;4989602;28;20466;-60
2022/09/24 02:53:28;;;;;;;9.23;5.93;;;;;;;9.42;100.00;98374.34;4990786;28;20032;-61
2022/09/24 02:55:54;;;;;;;8.63;6.57;;;;;;;9.38;100.00;98362.31;4982593;28;20022;-60
2022/09/24 02:58:20;;;;;;;9.77;5.90;;;;;;;9.37;100.00;98367.91;4989773;28;20466;-61
2022/09/24 03:00:45;;;;;;;9.15;6.13;;;;;;;9.44;100.00;98368.75;4985005;28;20030;-61
2022/09/24 03:03:11;;;;;;;10.10;5.90;;;;;;;9.50;100.00;98381.41;4990681;28;20049;-61
2022/09/24 03:05:36;;;;;;;9.85;5.70;;;;;;;9.57;100.00;98381.44;5001126;28;20071;-61
2022/09/24 03:08:01;;;;;;;10.23;6.07;;;;;;;9.59;100.00;98377.50;4989918;28;20054;-61
2022/09/24 03:10:27;;;;;;;12.23;6.88;;;;;;;9.57;100.00;98378.72;4985137;28;20517;-61
2022/09/24 03:12:52;;;;;;;11.75;7.15;;;;;;;9.58;100.00;98385.78;4987986;28;20061;-61
2022/09/24 03:15:17;;;;;;;15.35;7.50;;;;;;;9.61;100.00;98382.66;4987696;28;20120;-61
2022/09/24 03:17:42;;;;;;;14.38;7.72;;;;;;;9.61;100.00;98377.25;4988143;28;20168;-61
2022/09/24 03:20:08;;;;;;;13.88;7.40;;;;;;;9.65;100.00;98378.53;4989469;28;20058;-61
2022/09/24 03:22:34;;;;;;;12.25;7.13;;;;;;;9.62;100.00;98368.97;4985558;28;20133;-61
2022/09/24 03:25:02;;;;;;;14.43;7.57;;;;;;;9.71;100.00;98379.56;4983798;28;20022;-61
2022/09/24 03:27:27;;;;;;;17.25;8.05;;;;;;;9.72;100.00;98373.97;4988368;28;20026;-61
2022/09/24 03:32:38;;;;;;;19.45;9.15;;;;;;;9.67;100.00;98354.84;4986820;28;20576;-61
2022/09/24 03:35:04;;;;;;;17.75;8.43;;;;;;;9.62;100.00;98357.34;4987158;28;20034;-61
2022/09/24 03:37:30;;;;;;;14.50;8.15;;;;;;;9.61;100.00;98347.56;4986717;28;20144;-61
2022/09/24 03:39:56;;;;;;;15.00;6.82;;;;;;;9.70;100.00;98351.72;4982040;28;20038;-61
2022/09/24 03:42:21;;;;;;;12.40;7.07;;;;;;;9.66;100.00;98347.75;4984883;28;20042;-61
2022/09/24 03:44:46;;;;;;;15.00;6.45;;;;;;;9.60;100.00;98341.31;4985527;28;20503;-61
2022/09/24 03:47:12;;;;;;;10.10;5.63;;;;;;;9.59;100.00;98349.66;4987580;28;20029;-61
2022/09/24 03:49:37;;;;;;;10.07;5.55;;;;;;;9.56;100.00;98336.53;4984742;28;20121;-61
2022/09/24 03:52:03;;;;;;;7.75;5.32;;;;;;;9.55;100.00;98341.13;5002190;28;20386;-61
2022/09/24 03:54:28;;;;;;;8.23;5.30;;;;;;;9.58;100.00;98345.28;4986944;28;20081;-61
2022/09/24 03:56:53;;;;;;;8.52;4.90;;;;;;;9.65;100.00;98341.53;4995518;28;20054;-61
2022/09/24 03:59:19;;;;;;;7.68;4.38;;;;;;;9.72;100.00;98341.53;4990417;28;20548;-61
2022/09/24 04:01:44;;;;;;;6.82;4.22;;;;;;;9.67;100.00;98341.34;4985519;28;20037;-60
2022/09/24 04:04:13;;;;;;;6.55;4.10;;;;;;;9.62;100.00;98349.22;4985506;28;20034;-60
2022/09/24 04:06:38;;;;;;;10.88;4.88;;;;;;;9.62;100.00;98339.25;4982964;28;20607;-60
2022/09/24 04:09:04;;;;;;;5.90;3.95;;;;;;;9.59;100.00;98344.25;4983858;28;20026;-60
2022/09/24 04:11:29;;;;;;;8.70;3.88;;;;;;;9.57;100.00;98336.34;4985197;28;20026;-60
2022/09/24 04:13:54;;;;;;;10.43;5.47;;;;;;;9.56;100.00;98334.69;4987266;28;20034;-60
2022/09/24 04:16:20;;;;;;;9.98;5.30;;;;;;;9.53;100.00;98334.25;4986314;28;20040;-60
2022/09/24 04:18:47;;;;;;;7.75;5.32;;;;;;;9.55;100.00;98337.59;4989541;28;20037;-59
2022/09/24 04:21:12;;;;;;;9.40;5.68;;;;;;;9.46;100.00;98334.28;4986392;28;20022;-60
2022/09/24 04:23:38;;;;;;;9.05;5.80;;;;;;;9.43;100.00;98331.97;4980006;28;20034;-60
2022/09/24 04:26:03;;;;;;;7.80;5.85;;;;;;;9.50;100.00;98329.28;4979904;28;20053;-59
2022/09/24 04:28:29;;;;;;;15.32;6.35;;;;;;;9.44;100.00;98323.66;4982478;28;20076;-59
2022/09/24 04:30:55;;;;;;;9.07;6.00;;;;;;;9.44;100.00;98320.16;4985343;28;20081;-59
2022/09/24 04:33:20;;;;;;;9.77;5.93;;;;;;;9.44;100.00;98325.53;4983607;28;20038;-58
2022/09/24 04:35:46;;;;;;;11.82;6.15;;;;;;;9.42;100.00;98330.31;4988563;28;20050;-59
2022/09/24 04:38:12;;;;;;;9.43;6.40;;;;;;;9.41;100.00;98325.97;5003214;28;20049;-60
2022/09/24 04:40:38;;;;;;;11.10;6.85;;;;;;;9.38;100.00;98321.00;4985862;28;20458;-59
2022/09/24 04:43:04;;;;;;;9.40;6.45;;;;;;;9.35;100.00;98319.53;4989071;28;20030;-59
2022/09/24 04:45:31;;;;;;;8.55;6.57;;;;;;;9.40;100.00;98322.41;4984779;28;20037;-59
2022/09/24 04:47:56;;;;;;;12.68;6.65;;;;;;;9.40;100.00;98333.22;4987873;28;20473;-59
2022/09/24 04:50:32;;;;;;;11.30;7.05;;;;;;;9.39;100.00;98334.25;4982293;28;20084;-59
2022/09/24 04:52:58;;;;;;;10.32;6.82;;;;;;;9.40;100.00;98330.50;4983793;28;20049;-59
2022/09/24 04:55:24;;;;;;;12.48;7.82;;;;;;;9.40;100.00;98324.28;4977894;28;20458;-59
2022/09/24 04:57:50;;;;;;;10.32;6.65;;;;;;;9.39;100.00;98326.16;4987908;28;20037;-59
2022/09/24 05:00:19;;;;;;;9.35;6.05;;;;;;;9.38;100.00;98321.81;4985911;28;20030;-59
2022/09/24 05:02:45;;;;;;;10.07;6.18;;;;;;;9.38;100.00;98319.13;4987855;28;20098;-59
2022/09/24 05:05:11;;;;;;;11.68;8.15;;;;;;;9.37;100.00;98327.41;4982834;28;20034;-59
2022/09/24 05:07:37;;;;;;;8.60;6.60;;;;;;;9.37;100.00;98324.72;4984631;28;20552;-59
2022/09/24 05:10:03;;;;;;;11.40;6.90;;;;;;;9.31;100.00;98318.28;4985402;28;20030;-60
2022/09/24 05:12:28;;;;;;;11.57;6.43;;;;;;;9.29;100.00;98317.63;4971467;28;20026;-59
2022/09/24 05:14:53;;;;;;;10.23;6.55;;;;;;;9.49;100.00;98324.94;4994466;28;20018;-59
2022/09/24 05:17:19;;;;;;;10.23;6.15;;;;;;;9.59;100.00;98319.94;4984584;28;20022;-60
2022/09/24 05:19:44;;;;;;;10.10;6.43;;;;;;;9.52;100.00;98319.94;4987019;28;20054;-59
2022/09/24 05:22:10;;;;;;;9.48;6.20;;;;;;;9.52;100.00;98327.22;4987939;28;20054;-59
2022/09/24 05:24:35;;;;;;;12.27;6.38;;;;;;;9.48;100.00;98326.78;4979551;28;20117;-59
2022/09/24 05:27:10;;;;;;;8.27;5.47;;;;;;;9.48;100.00;98332.19;4979275;28;20197;-60
2022/09/24 05:29:38;;;;;;;7.28;5.63;;;;;;;9.48;100.00;98329.47;4985519;28;20039;-60
2022/09/24 05:32:15;;;;;;;8.80;6.25;;;;;;;9.53;100.00;98328.84;4988646;28;20042;-59
2022/09/24 05:34:42;;;;;;;9.90;5.90;;;;;;;9.52;100.00;98327.22;4988173;28;20038;-59
2022/09/24 05:37:07;;;;;;;9.07;5.97;;;;;;;9.58;100.00;98329.91;5000429;28;20042;-60
2022/09/24 05:39:33;;;;;;;9.60;5.85;;;;;;;9.60;100.00;98335.91;4982974;28;20034;-60
2022/09/24 05:41:58;;;;;;;8.77;5.70;;;;;;;9.61;100.00;98328.66;4979551;28;20022;-59
2022/09/24 05:44:24;;;;;;;7.05;5.60;;;;;;;9.69;100.00;98331.13;4983522;28;20030;-59
2022/09/24 05:46:50;;;;;;;10.05;6.18;;;;;;;9.68;100.00;98339.47;4988130;28;20457;-59
2022/09/24 05:49:16;;;;;;;13.45;5.05;;;;;;;9.84;100.00;98334.44;4996383;28;20032;-60
2022/09/24 05:51:49;;;;;;;11.20;5.47;;;;;;;10.00;100.00;98337.75;4989965;28;20113;-59
2022/09/24 05:54:16;;;;;;;8.70;5.60;;;;;;;9.95;100.00;98332.13;4990848;28;20076;-59
2022/09/24 05:56:59;;;;;;;7.97;5.72;;;;;;;9.96;100.00;98340.06;4986917;28;20046;-59
2022/09/24 05:59:25;;;;;;;8.07;5.57;;;;;;;10.04;100.00;98341.69;4991660;28;20037;-59
2022/09/24 06:01:50;;;;;;;7.97;5.35;;;;;;;10.05;100.00;98337.94;4984319;28;20022;-60
2022/09/24 06:04:16;;;;;;;10.25;5.80;;;;;;;10.13;100.00;98348.53;4987483;28;20041;-60
2022/09/24 06:06:42;;;;;;;9.90;6.35;;;;;;;10.21;100.00;98342.88;4985378;28;20085;-60
2022/09/24 06:09:08;;;;;;;10.93;5.88;;;;;;;10.34;100.00;98338.50;4981067;28;20030;-60
2022/09/24 06:11:34;;;;;;;10.23;5.68;;;;;;;10.64;100.00;98338.84;4995657;28;20026;-60
2022/09/24 06:14:04;;;;;;;11.90;5.50;;;;;;;10.86;100.00;98344.75;4984392;28;20022;-59
2022/09/24 06:16:32;;;;;;;9.50;5.18;;;;;;;11.03;100.00;98340.50;4981453;28;20081;-59
2022/09/24 06:18:57;;;;;;;7.05;4.97;;;;;;;11.15;100.00;98346.84;4994836;28;20308;-59
2022/09/24 06:21:22;;;;;;;8.20;5.22;;;;;;;11.29;100.00;98347.63;4977392;28;20738;-59
2022/09/24 06:23:48;;;;;;;9.07;5.50;;;;;;;11.35;100.00;98341.31;4983572;28;20070;-59
2022/09/24 06:26:13;;;;;;;7.03;5.40;;;;;;;11.31;100.00;98344.66;4979387;28;20113;-59
2022/09/24 06:28:40;;;;;;;10.02;5.57;;;;;;;11.29;100.00;98344.03;4981159;28;20033;-59
2022/09/24 06:31:08;;;;;;;7.68;5.57;;;;;;;11.29;100.00;98334.06;4980370;28;20030;-59
2022/09/24 06:33:33;;;;;;;8.43;6.18;;;;;;;11.27;100.00;98341.59;4980692;28;20521;-58
2022/09/24 06:36:00;;;;;;;8.68;5.22;;;;;;;11.18;100.00;98341.00;4989134;28;20057;-58
2022/09/24 06:38:25;;;;;;;9.88;6.40;;;;;;;11.23;100.00;98348.47;4986053;28;20394;-58
2022/09/24 06:40:51;;;;;;;12.00;7.22;;;;;;;11.33;100.00;98354.22;4989591;28;20056;-58
2022/09/24 06:43:17;;;;;;;11.85;7.50;;;;;;;11.42;100.00;98357.50;5003384;28;20145;-58
2022/09/24 06:45:43;;;;;;;11.07;6.35;;;;;;;11.52;100.00;98365.13;4983376;28;20049;-58
2022/09/24 06:48:11;;;;;;;8.63;6.07;;;;;;;11.67;100.00;98365.66;4991071;28;20030;-58
2022/09/24 06:50:40;;;;;;;10.57;5.82;;;;;;;11.88;100.00;98369.88;4986608;28;20146;-63
2022/09/24 06:53:07;;;;;;;11.05;6.57;;;;;;;12.16;100.00;98372.13;4984659;28;20112;-57
2022/09/24 06:55:33;;;;;;;10.60;5.90;;;;;;;12.51;100.00;98374.25;4986972;28;20085;-57
2022/09/24 06:58:06;;;;;;;10.82;5.65;;;;;;;12.84;100.00;98370.31;4985748;28;20196;-57
2022/09/24 07:00:33;;;;;;;8.70;5.70;;;;;;;13.25;100.00;98374.94;4993557;28;20022;-57
2022/09/24 07:02:58;;;;;;;7.40;5.20;;;;;;;13.40;100.00;98373.72;4988117;28;20026;-57
2022/09/24 07:05:24;;;;;;;8.82;5.38;;;;;;;13.76;100.00;98365.41;4993039;28;20383;-57
2022/09/24 07:07:49;;;;;;;12.00;5.55;;;;;;;14.12;100.00;98374.44;4981355;28;20708;-57
2022/09/24 07:10:16;;;;;;;5.70;4.43;;;;;;;14.09;100.00;98374.06;4988157;28;20064;-58
2022/09/24 07:12:42;;;;;;;7.93;4.68;;;;;;;14.49;100.00;98368.72;4990403;28;20038;-56
2022/09/24 07:15:08;;;;;;;7.32;4.70;;;;;;;14.71;96.69;98370.81;5002824;28;20080;-56
2022/09/24 07:17:33;;;;;;;6.88;4.47;;;;;;;14.79;96.45;98362.28;4988541;28;20427;-56
2022/09/24 07:19:59;;;;;;;9.43;4.28;;;;;;;14.56;96.75;98361.25;4984460;28;20038;-56
2022/09/24 07:22:25;;;;;;;9.77;5.30;;;;;;;14.14;100.00;98358.66;4984888;28;20036;-56
2022/09/24 07:24:51;;;;;;;6.78;4.53;;;;;;;14.24;100.00;98363.53;4989778;28;20085;-55
2022/09/24 07:27:16;;;;;;;9.93;4.43;;;;;;;14.12;99.69;98357.25;4984373;28;20062;-55
2022/09/24 07:29:41;;;;;;;7.22;4.18;;;;;;;14.40;95.98;98373.69;5000955;28;20037;-55
2022/09/24 07:32:07;;;;;;;11.00;4.63;;;;;;;14.50;96.06;98380.44;4972724;28;20034;-55
2022/09/24 07:34:32;;;;;;;7.57;4.35;;;;;;;14.41;97.05;98388.97;4987301;28;20128;-56
2022/09/24 07:36:58;;;;;;;7.20;4.55;;;;;;;14.24;97.98;98393.47;4981661;28;20072;-56
2022/09/24 07:39:24;;;;;;;6.68;4.80;;;;;;;14.36;97.43;98394.28;4975398;28;20442;-55
2022/09/24 07:41:51;;;;;;;7.43;4.28;;;;;;;14.14;100.00;98388.59;4983693;28;20487;-55
2022/09/24 07:44:19;;;;;;;5.43;4.25;;;;;;;14.01;100.00;98395.09;4985270;28;20558;-55
2022/09/24 07:46:47;;;;;;;8.05;4.55;;;;;;;13.82;100.00;98405.25;4976176;28;20034;-55
2022/09/24 07:49:12;;;;;;;8.05;5.07;;;;;;;13.76;100.00;98405.38;4980085;28;20113;-56
2022/09/24 07:51:38;;;;;;;6.00;4.35;;;;;;;13.77;100.00;98404.31;4986192;28;20037;-55
2022/09/24 07:54:03;;;;;;;5.95;4.50;;;;;;;13.88;100.00;98408.09;4997141;28;20473;-55
2022/09/24 07:56:31;;;;;;;6.53;4.60;;;;;;;13.98;100.00;98409.16;4979557;28;20061;-55
2022/09/24 07:58:56;;;;;;;5.93;4.45;;;;;;;14.14;100.00;98404.91;4988401;28;20846;-56
2022/09/24 08:01:21;;;;;;;5.80;3.95;;;;;;;14.39;100.00;98401.16;4987916;28;20036;-56
2022/09/24 08:03:47;;;;;;;5.95;4.40;;;;;;;14.59;100.00;98401.63;4989945;28;20046;-56
2022/09/24 08:06:12;;;;;;;8.88;5.00;;;;;;;14.63;100.00;98407.41;4988756;28;20019;-56
2022/09/24 08:08:38;;;;;;;9.63;4.93;;;;;;;14.42;98.97;98411.56;4983289;28;20155;-56
2022/09/24 08:11:06;;;;;;;7.45;4.95;;;;;;;14.42;100.00;98406.09;4989590;28;20018;-57
2022/09/24 08:13:35;;;;;;;7.32;4.85;;;;;;;14.41;99.10;98399.03;4999434;28;20041;-56
2022/09/24 08:16:01;;;;;;;9.30;5.25;;;;;;;14.58;97.96;98399.97;4984284;28;20379;-56
2022/09/24 08:18:28;;;;;;;11.07;5.80;;;;;;;14.52;97.54;98395.44;4987191;28;20158;-56
2022/09/24 08:20:54;;;;;;;8.88;5.45;;;;;;;14.38;100.00;98402.19;4989133;28;20030;-56
2022/09/24 08:23:19;;;;;;;10.27;6.10;;;;;;;14.69;99.54;98398.28;4978287;28;20121;-56
2022/09/24 08:25:46;;;;;;;12.93;5.80;;;;;;;14.71;95.66;98401.59;4987688;28;20075;-59
2022/09/24 08:28:11;;;;;;;7.93;5.20;;;;;;;14.81;94.07;98407.25;4987332;28;20077;-59
2022/09/24 08:30:41;;;;;;;10.18;6.13;;;;;;;14.94;93.15;98406.16;4981392;28;20475;-60
2022/09/24 08:33:07;;;;;;;10.48;5.70;;;;;;;14.75;92.93;98408.22;4988205;28;20553;-61
2022/09/24 08:35:34;;;;;;;9.45;5.53;;;;;;;14.97;93.83;98402.97;4987628;28;20052;-60
2022/09/24 08:38:00;;;;;;;11.55;6.00;;;;;;;15.06;92.69;98400.66;4997820;28;20025;-60
2022/09/24 08:40:29;;;;;;;7.68;5.78;;;;;;;14.92;93.37;98402.84;4994386;28;20034;-60
2022/09/24 08:43:18;;;;;;;8.35;5.75;;;;;;;14.92;95.59;98410.19;4986551;28;20425;-59
2022/09/24 08:48:39;;;;;;;9.57;5.35;;;;;;;14.75;94.11;98412.81;4983717;28;20128;-62
2022/09/24 08:51:12;;;;;;;10.23;5.57;;;;;;;14.63;100.00;98408.25;4988210;28;20164;-59
2022/09/24 08:53:40;;;;;;;7.88;6.03;;;;;;;14.76;97.90;98406.34;4992273;28;20019;-69
2022/09/24 08:56:08;;;;;;;8.75;5.68;;;;;;;14.90;97.57;98413.16;5008998;28;20034;-62
2022/09/24 08:58:49;;;;;;;10.85;6.25;;;;;;;15.02;96.55;98405.78;4971975;28;20038;-60
2022/09/24 09:01:37;;;;;;;10.63;5.70;;;;;;;15.30;93.62;98412.31;5002073;28;20053;-59
2022/09/24 09:04:12;;;;;;;11.57;6.33;;;;;;;15.17;93.08;98401.69;4980175;28;20117;-58
2022/09/24 09:07:01;;;;;;;10.70;6.32;;;;;;;15.25;94.82;98414.97;5004248;28;20030;-60
2022/09/24 09:10:07;;;;;;;10.05;6.32;;;;;;;15.38;93.05;98414.66;4980594;28;20036;-58
2022/09/24 09:12:54;;;;;;;8.73;6.75;;;;;;;15.63;89.00;98406.09;4995361;28;21835;-63
2022/09/24 09:15:24;;;;;;;11.18;6.60;;;;;;;15.86;87.73;98407.06;4985475;28;20061;-59
2022/09/24 09:17:56;;;;;;;29.40;7.50;;;;;;;16.00;86.15;98411.94;4980467;28;20034;-58
2022/09/24 09:20:34;;;;;;;10.40;6.43;;;;;;;16.25;83.93;98407.97;4985144;28;20037;-59
2022/09/24 09:23:15;;;;;;;15.35;6.93;;;;;;;16.13;85.15;98401.78;4983338;28;20709;-59
2022/09/24 09:25:51;;;;;;;13.13;7.60;;;;;;;16.29;83.74;98414.56;4980786;28;20026;-62
2022/09/24 09:28:16;;;;;;;9.82;6.90;;;;;;;16.79;80.58;98405.50;4988529;28;20096;-59
2022/09/24 09:31:17;;;;;;;13.05;6.57;;;;;;;16.61;81.36;98414.78;4980226;28;20411;-67
2022/09/24 09:34:04;;;;;;;14.48;6.88;;;;;;;16.91;80.62;98408.09;4981048;28;20104;-59
2022/09/24 09:36:52;;;;;;;11.73;7.07;;;;;;;17.17;77.91;98419.34;4996176;28;20030;-66
2022/09/24 09:39:29;;;;;;;10.95;6.72;;;;;;;16.98;77.40;98410.63;5001790;28;20116;-65
2022/09/24 09:42:23;;;;;;;11.85;6.55;;;;;;;17.35;76.51;98409.97;4982778;28;20054;-63
2022/09/24 09:44:48;;;;;;;11.57;6.68;;;;;;;17.48;76.07;98415.03;4985364;28;20049;-63
2022/09/24 09:47:34;;;;;;;9.35;7.20;;;;;;;18.17;72.56;98406.91;4983811;28;20034;-66
2022/09/24 09:50:23;;;;;;;11.85;6.80;;;;;;;18.20;73.52;98413.75;5004710;28;20041;-67
2022/09/24 09:52:49;;;;;;;10.25;6.78;;;;;;;18.09;72.54;98404.66;4997225;28;20038;-66
2022/09/24 09:55:27;;;;;;;15.07;7.30;;;;;;;17.79;75.67;98407.09;4990755;28;20760;-69
2022/09/24 09:57:57;;;;;;;7.57;6.20;;;;;;;17.81;73.25;98410.44;4985176;28;20028;-68
2022/09/24 10:00:33;;;;;;;15.88;7.22;;;;;;;17.50;75.14;98407.38;4986172;28;20371;-69
2022/09/24 10:02:58;;;;;;;12.77;7.22;;;;;;;17.08;77.12;98405.28;4988284;28;20039;-69
2022/09/24 10:05:27;;;;;;;11.52;7.65;;;;;;;16.74;82.42;98410.84;4980555;28;20033;-63
2022/09/24 10:07:56;;;;;;;10.93;7.03;;;;;;;16.47;85.04;98404.47;4982349;28;20169;-63
2022/09/24 10:10:24;;;;;;;15.20;8.25;;;;;;;16.26;83.94;98409.59;4984587;28;20073;-62
2022/09/24 10:13:10;;;;;;;10.02;7.20;;;;;;;16.56;82.95;98402.97;4979720;28;20034;-63
2022/09/24 10:15:48;;;;;;;11.75;7.20;;;;;;;16.39;85.52;98408.44;4984426;28;20703;-62
2022/09/24 10:18:15;;;;;;;10.97;6.23;;;;;;;16.59;82.30;98400.53;4980915;28;20030;-62
2022/09/24 10:20:47;;;;;;;10.00;6.95;;;;;;;16.52;83.41;98407.25;4981009;28;20285;-61
2022/09/24 10:23:22;;;;;;;10.98;6.72;;;;;;;16.77;82.49;98393.97;4984597;28;20030;-61
2022/09/24 10:25:57;;;;;;;11.25;7.00;;;;;;;16.98;82.20;98394.25;4982707;28;20332;-62
2022/09/24 10:31:11;;;;;;;11.93;6.85;;;;;;;17.92;77.03;98393.00;4974480;28;20271;-62
2022/09/24 10:33:43;;;;;;;10.27;6.60;;;;;;;18.15;75.22;98398.13;4991744;28;20506;-62
2022/09/24 10:36:21;;;;;;;11.10;6.53;;;;;;;18.48;73.79;98401.63;4984867;28;20066;-62
2022/09/24 10:38:48;;;;;;;11.70;6.55;;;;;;;18.79;70.61;98396.38;4985119;28;20144;-63
2022/09/24 10:41:24;;;;;;;9.10;6.13;;;;;;;18.80;68.76;98398.81;4981704;28;20655;-62
2022/09/24 10:43:52;;;;;;;11.35;5.80;;;;;;;19.15;68.10;98399.22;5001039;28;20034;-65
2022/09/24 10:46:44;;;;;;;9.48;5.53;;;;;;;19.82;63.29;98398.31;4981726;28;20475;-62
2022/09/24 10:49:33;;;;;;;9.65;5.68;;;;;;;20.29;62.03;98405.44;4996870;28;20030;-67
2022/09/24 10:52:22;;;;;;;;;;;;;;;20.86;59.49;98400.66;4946855;28;20745;-65
2022/09/24 10:55:06;;;;;;;10.38;5.22;;;;;;;20.71;61.31;98406.22;4976077;28;20000;-64
2022/09/24 10:57:31;;;;;;;8.18;5.07;;;;;;;20.72;61.16;98405.09;4982116;28;20489;-67
2022/09/24 11:00:08;;;;;;;6.55;4.10;;;;;;;20.60;60.22;98399.09;5003129;28;20034;-68
2022/09/24 11:02:59;;;;;;;6.47;4.28;;;;;;;20.49;62.52;98395.53;4976105;28;20145;-65
2022/09/24 11:05:34;;;;;;;8.45;4.18;;;;;;;20.27;63.17;98407.63;5002344;28;20041;-59
2022/09/24 11:08:12;;;;;;;9.70;4.68;;;;;;;20.34;61.81;98396.38;4986016;28;22186;-61
2022/09/24 11:11:13;;;;;;;8.93;3.93;;;;;;;21.34;59.36;98386.41;4984831;28;20030;-63
2022/09/24 11:13:53;;;;;;;9.05;4.40;;;;;;;21.05;58.31;98378.88;5003784;28;20030;-62
2022/09/24 11:16:27;;;;;;;9.50;4.32;;;;;;;21.22;57.94;98390.34;4984096;28;20501;-59
2022/09/24 11:18:59;;;;;;;6.43;4.00;;;;;;;20.85;60.73;98376.19;4989525;28;20125;-59
2022/09/24 11:21:38;;;;;;;10.32;4.20;;;;;;;20.26;61.75;98381.28;4986397;28;20051;-59
2022/09/24 11:24:31;;;;;;;6.05;3.72;;;;;;;20.32;62.26;98380.16;4999520;28;20494;-59
2022/09/24 11:27:18;;;;;;;7.35;3.95;;;;;;;20.18;61.65;98381.84;5000704;28;20569;-61
2022/09/24 11:30:11;;;;;;;5.35;3.83;;;;;;;20.57;60.42;98384.00;4994132;28;20030;-62
2022/09/24 11:32:47;;;;;;;5.82;4.05;;;;;;;20.40;61.75;98380.69;4988875;28;20026;-57
2022/09/24 11:35:28;;;;;;;8.32;4.68;;;;;;;20.28;62.33;98372.75;4988179;28;20061;-61
2022/09/24 11:38:28;;;;;;;10.38;4.10;;;;;;;20.73;59.77;98374.59;4994787;28;20069;-60
2022/09/24 11:41:31;;;;;;;5.60;4.30;;;;;;;20.30;60.76;98371.38;4963526;28;20038;-61
2022/09/24 11:44:25;;;;;;;6.15;4.43;;;;;;;20.20;62.59;98370.56;5006147;28;20154;-64
2022/09/24 11:47:26;;;;;;;7.60;5.20;;;;;;;20.12;63.11;98366.44;4984311;28;20026;-61
2022/09/24 11:50:18;;;;;;;6.25;3.83;;;;;;;20.57;60.22;98365.56;4968148;28;20442;-64
2022/09/24 11:52:50;;;;;;;7.30;3.70;;;;;;;20.88;59.61;98359.13;4990036;28;20050;-65
2022/09/24 11:55:24;;;;;;;5.82;3.92;;;;;;;21.20;59.55;98351.28;5035235;22;20785;-70
2022/09/24 11:58:22;;;;;;;5.30;3.47;;;;;;;21.13;58.39;98353.50;5029690;28;20102;-70